Time;durP1;ratioP1;P1;durP2;ratioP2;P2;SDS_P1;SDS_P2;PMS_P1;PMS_P2;Temp;Humidity;BMP_temperature;BMP_pressure;BME280_temperature;BME280_humidity;BME280_pressure;Samples;Min_cycle;Max_cycle;Signal;HPM_P1;HPM_P2
2022/06/03 00:02:13;;;;;;;;;;;19.20;64.80;;;;;;5016326;28;1178;-75
2022/06/03 00:04:48;;;;;;;;;;;19.20;64.80;;;;;;4998966;28;1259;-76
2022/06/03 00:07:13;;;;;;;;;;;19.20;64.80;;;;;;5016638;28;897;-74
2022/06/03 00:09:44;;;;;;;;;;;19.20;64.80;;;;;;5016431;28;843;-76
2022/06/03 00:12:28;;;;;;;;;;;19.20;64.80;;;;;;4998892;28;1375;-76
2022/06/03 00:15:04;;;;;;;;;;;19.20;64.80;;;;;;5015143;28;870;-76
2022/06/03 00:17:48;;;;;;;;;;;19.20;64.90;;;;;;5015199;28;804;-76
2022/06/03 00:20:20;;;;;;;;;;;19.20;64.80;;;;;;4976981;28;1970;-74
2022/06/03 00:22:46;;;;;;;;;;;19.20;64.90;;;;;;4977175;28;1217;-75
2022/06/03 00:25:31;;;;;;;;;;;19.20;64.90;;;;;;4978028;28;1124;-76
2022/06/03 00:27:57;;;;;;;;;;;19.20;64.90;;;;;;4976789;28;1122;-76
2022/06/03 00:30:29;;;;;;;;;;;19.20;64.90;;;;;;4975516;28;1287;-75
2022/06/03 00:32:57;;;;;;;;;;;19.20;64.90;;;;;;4976970;28;1322;-75
2022/06/03 00:35:26;;;;;;;;;;;19.20;64.90;;;;;;4975544;28;1356;-76
2022/06/03 00:38:00;;;;;;;;;;;19.20;64.90;;;;;;4992037;28;838;-76
2022/06/03 00:40:44;;;;;;;;;;;19.20;64.90;;;;;;4975389;28;1895;-75
2022/06/03 00:43:13;;;;;;;;;;;19.20;64.90;;;;;;4976912;28;970;-76
2022/06/03 00:45:56;;;;;;;;;;;19.20;64.90;;;;;;4976731;28;868;-76
2022/06/03 00:48:45;;;;;;;;;;;19.20;64.90;;;;;;4976882;28;908;-76
2022/06/03 00:51:16;;;;;;;;;;;19.20;64.90;;;;;;4975265;28;1292;-76
2022/06/03 00:53:59;;;;;;;;;;;19.20;65.00;;;;;;4974982;28;1120;-75
2022/06/03 00:56:38;;;;;;;;;;;19.20;65.00;;;;;;4991452;28;1006;-76
2022/06/03 00:59:14;;;;;;;;;;;19.20;65.00;;;;;;4991382;28;1981;-76
2022/06/03 01:01:42;;;;;;;;;;;19.20;65.00;;;;;;4974928;28;1279;-74
2022/06/03 01:04:17;;;;;;;;;;;19.20;65.00;;;;;;4992121;28;1074;-76
2022/06/03 01:06:51;;;;;;;;;;;19.20;65.00;;;;;;4990647;28;1061;-76
2022/06/03 01:09:17;;;;;;;;;;;19.20;65.00;;;;;;4975281;28;1308;-76
2022/06/03 01:11:43;;;;;;;;;;;19.20;65.00;;;;;;4975040;28;1363;-76
2022/06/03 01:14:13;;;;;;;;;;;19.20;65.00;;;;;;4975058;28;1366;-75
2022/06/03 01:16:45;;;;;;;;;;;19.20;65.00;;;;;;4976216;28;856;-76
2022/06/03 01:19:16;;;;;;;;;;;19.20;65.00;;;;;;4999282;28;1902;-75
2022/06/03 01:21:50;;;;;;;;;;;19.20;65.00;;;;;;5014855;28;1193;-76
2022/06/03 01:24:27;;;;;;;;;;;19.20;65.10;;;;;;5015298;28;889;-76
2022/06/03 01:27:11;;;;;;;;;;;19.20;65.00;;;;;;5012129;28;1321;-74
2022/06/03 01:29:42;;;;;;;;;;;19.20;65.00;;;;;;5013453;28;1383;-75
2022/06/03 01:32:27;;;;;;;;;;;19.20;65.10;;;;;;5013582;28;1194;-76
2022/06/03 01:35:04;;;;;;;;;;;19.20;65.10;;;;;;5014883;28;804;-76
2022/06/03 01:37:34;;;;;;;;;;;19.20;65.10;;;;;;5014932;28;986;-75
2022/06/03 01:40:08;;;;;;;;;;;19.20;65.10;;;;;;5013081;28;1968;-76
2022/06/03 01:42:52;;;;;;;;;;;19.20;65.10;;;;;;4997070;28;1218;-75
2022/06/03 01:45:17;;;;;;;;;;;19.20;65.10;;;;;;5014616;28;1006;-75
2022/06/03 01:47:58;;;;;;;;;;;19.20;65.10;;;;;;5014893;28;1227;-76
2022/06/03 01:50:23;;;;;;;;;;;19.20;65.10;;;;;;5012960;28;926;-75
2022/06/03 01:52:58;;;;;;;;;;;19.10;65.10;;;;;;5014550;28;1316;-76
2022/06/03 01:55:55;;;;;;;;;;;19.20;65.10;;;;;;5014560;28;895;-75
2022/06/03 01:58:27;;;;;;;;;;;19.20;65.20;;;;;;5002470;28;1283;-75
2022/06/03 02:01:02;;;;;;;;;;;19.10;65.10;;;;;;5012726;28;1977;-76
2022/06/03 02:03:31;;;;;;;;;;;19.20;65.20;;;;;;5013901;28;935;-76
2022/06/03 02:05:59;;;;;;;;;;;19.20;65.20;;;;;;5014193;28;882;-75
2022/06/03 02:08:43;;;;;;;;;;;19.20;65.20;;;;;;5014430;28;955;-76
2022/06/03 02:11:08;;;;;;;;;;;19.20;65.20;;;;;;5013792;28;1197;-74
2022/06/03 02:13:33;;;;;;;;;;;19.20;65.20;;;;;;5014608;28;1014;-76
2022/06/03 02:16:05;;;;;;;;;;;19.20;65.20;;;;;;5014449;28;1007;-76
2022/06/03 02:18:30;;;;;;;;;;;19.20;65.20;;;;;;5012949;28;1232;-76
2022/06/03 02:21:14;;;;;;;;;;;19.20;65.20;;;;;;5012408;28;1898;-76
2022/06/03 02:23:58;;;;;;;;;;;19.20;65.20;;;;;;5014007;28;808;-76
2022/06/03 02:26:29;;;;;;;;;;;19.20;65.20;;;;;;5010560;28;1272;-76
2022/06/03 02:30:24;;;;;;;;;;;19.20;65.20;;;;;;4996322;28;1160;-74
2022/06/03 02:32:03;;;;;;;;;;;19.20;65.30;;;;;;5013519;28;1271;-76
2022/06/03 02:34:58;;;;;;;;;;;19.20;65.30;;;;;;5013032;28;859;-75
2022/06/03 02:37:35;;;;;;;;;;;19.20;65.30;;;;;;4978455;28;1279;-75
2022/06/03 02:40:18;;;;;;;;;;;19.20;65.30;;;;;;5013645;28;1964;-76
2022/06/03 02:42:52;;;;;;;;;;;19.20;65.30;;;;;;5012532;28;1219;-76
2022/06/03 02:45:37;;;;;;;;;;;19.20;65.30;;;;;;5013833;28;804;-75
2022/06/03 02:48:02;;;;;;;;;;;19.20;65.30;;;;;;5012522;28;1014;-75
2022/06/03 02:50:46;;;;;;;;;;;19.20;65.30;;;;;;5013375;28;978;-75
2022/06/03 02:53:17;;;;;;;;;;;19.20;65.30;;;;;;5013748;28;847;-74
2022/06/03 02:55:42;;;;;;;;;;;19.20;65.30;;;;;;4996249;28;1217;-74
2022/06/03 02:58:11;;;;;;;;;;;19.20;65.30;;;;;;5013829;28;967;-75
2022/06/03 03:00:40;;;;;;;;;;;19.20;65.30;;;;;;5013332;28;1985;-75
2022/06/03 03:03:17;;;;;;;;;;;19.20;65.40;;;;;;5013382;28;1193;-75
2022/06/03 03:05:48;;;;;;;;;;;19.20;65.30;;;;;;5013328;28;835;-74
2022/06/03 03:08:30;;;;;;;;;;;19.20;65.40;;;;;;4995876;28;1204;-74
2022/06/03 03:10:59;;;;;;;;;;;19.20;65.40;;;;;;5011753;28;1197;-75
2022/06/03 03:13:33;;;;;;;;;;;19.20;65.40;;;;;;5013420;28;863;-76
2022/06/03 03:16:09;;;;;;;;;;;19.20;65.30;;;;;;5012945;28;911;-75
2022/06/03 03:18:43;;;;;;;;;;;19.20;65.40;;;;;;5012071;28;1143;-75
2022/06/03 03:21:18;;;;;;;;;;;19.20;65.40;;;;;;5012801;28;1891;-74
2022/06/03 03:23:44;;;;;;;;;;;19.20;65.40;;;;;;5012048;28;862;-76
2022/06/03 03:26:35;;;;;;;;;;;19.20;65.40;;;;;;5010822;28;1281;-74
2022/06/03 03:29:10;;;;;;;;;;;19.20;65.40;;;;;;5011889;28;979;-75
2022/06/03 03:31:54;;;;;;;;;;;19.10;65.30;;;;;;5012726;28;1248;-75
2022/06/03 03:34:24;;;;;;;;;;;19.20;65.40;;;;;;5013121;28;966;-74
2022/06/03 03:37:11;;;;;;;;;;;19.20;65.40;;;;;;5011708;28;787;-74
2022/06/03 03:39:55;;;;;;;;;;;19.20;65.40;;;;;;5011731;28;1902;-74
2022/06/03 03:42:23;;;;;;;;;;;19.20;65.40;;;;;;5021934;23;3637;-72
2022/06/03 03:45:03;;;;;;;;;;;19.20;65.50;;;;;;4994056;28;808;-71
2022/06/03 03:47:41;;;;;;;;;;;19.20;65.50;;;;;;4993424;28;1366;-72
2022/06/03 03:50:09;;;;;;;;;;;19.20;65.40;;;;;;4993012;28;831;-72
2022/06/03 03:52:41;;;;;;;;;;;19.20;65.60;;;;;;4993369;28;1214;-72
2022/06/03 03:55:06;;;;;;;;;;;19.20;65.50;;;;;;5008521;28;819;-72
2022/06/03 03:57:37;;;;;;;;;;;19.20;65.40;;;;;;4993120;28;812;-72
2022/06/03 04:00:03;;;;;;;;;;;19.20;65.50;;;;;;4992826;28;1969;-71
2022/06/03 04:03:04;;;;;;;;;;;19.20;65.50;;;;;;4993222;28;1290;-72
2022/06/03 04:05:32;;;;;;;;;;;19.20;65.50;;;;;;4990862;28;1152;-72
2022/06/03 04:08:12;;;;;;;;;;;19.20;65.50;;;;;;4992718;28;1051;-70
2022/06/03 04:10:47;;;;;;;;;;;19.10;65.40;;;;;;4993212;28;1045;-71
2022/06/03 04:13:30;;;;;;;;;;;19.20;65.50;;;;;;4993239;28;1279;-72
2022/06/03 04:16:13;;;;;;;;;;;19.20;65.50;;;;;;4993172;28;907;-71
2022/06/03 04:18:39;;;;;;;;;;;19.20;65.50;;;;;;5023385;28;1274;-70
2022/06/03 04:21:16;;;;;;;;;;;19.20;65.50;;;;;;5033783;28;1944;-71
2022/06/03 04:23:44;;;;;;;;;;;19.20;65.50;;;;;;5032810;28;1181;-72
2022/06/03 04:26:28;;;;;;;;;;;19.10;65.50;;;;;;5023854;28;1083;-72
2022/06/03 04:29:34;;;;;;;;;;;19.20;65.50;;;;;;5015971;28;1089;-72
2022/06/03 04:32:04;;;;;;;;;;;19.20;65.50;;;;;;5015819;28;1216;-71
2022/06/03 04:35:08;;;;;;;;;;;19.10;65.50;;;;;;5016229;28;883;-72
2022/06/03 04:37:51;;;;;;;;;;;19.20;65.50;;;;;;4974781;28;1297;-72
2022/06/03 04:40:52;;;;;;;;;;;19.20;65.50;;;;;;4974288;28;1965;-72
2022/06/03 04:43:20;;;;;;;;;;;19.10;65.50;;;;;;4954860;28;1382;-72
2022/06/03 04:46:01;;;;;;;;;;;19.20;65.60;;;;;;5002971;28;1261;-72
2022/06/03 04:49:02;;;;;;;;;;;19.20;65.60;;;;;;5014807;28;793;-71
2022/06/03 04:51:36;;;;;;;;;;;19.20;65.60;;;;;;4974016;28;1439;-71
2022/06/03 04:54:12;;;;;;;;;;;19.20;65.60;;;;;;5009625;28;1073;-70
2022/06/03 04:56:55;;;;;;;;;;;19.20;65.60;;;;;;5014695;28;883;-71
2022/06/03 04:59:38;;;;;;;;;;;19.10;65.50;;;;;;5014592;28;1906;-70
2022/06/03 05:02:13;;;;;;;;;;;19.10;65.60;;;;;;5015234;28;1255;-71
2022/06/03 05:04:57;;;;;;;;;;;19.20;65.60;;;;;;5015771;28;879;-71
2022/06/03 05:07:41;;;;;;;;;;;19.20;65.60;;;;;;5016177;28;828;-72
2022/06/03 05:10:34;;;;;;;;;;;19.10;65.50;;;;;;5015125;28;1284;-73
2022/06/03 05:13:21;;;;;;;;;;;19.10;65.60;;;;;;5014275;28;1201;-72
2022/06/03 05:16:06;;;;;;;;;;;19.10;62.20;;;;;;4998242;28;1236;-71
2022/06/03 05:18:50;;;;;;;;;;;19.10;61.10;;;;;;5015705;28;1212;-71
2022/06/03 05:21:24;;;;;;;;;;;19.10;60.90;;;;;;5013902;28;1902;-72
2022/06/03 05:24:13;;;;;;;;;;;19.10;61.00;;;;;;5010072;28;1803;-70
2022/06/03 05:26:57;;;;;;;;;;;19.10;61.30;;;;;;5013612;28;1961;-68
2022/06/03 05:29:40;;;;;;;;;;;19.10;61.30;;;;;;5012240;28;1236;-69
2022/06/03 05:32:32;;;;;;;;;;;19.10;61.50;;;;;;5015042;28;1284;-69
2022/06/03 05:35:16;;;;;;;;;;;19.10;61.70;;;;;;4999286;28;1312;-69
2022/06/03 05:37:47;;;;;;;;;;;19.10;61.80;;;;;;5014996;28;862;-70
2022/06/03 05:40:19;;;;;;;;;;;19.10;62.00;;;;;;5014640;28;1961;-69
2022/06/03 05:42:47;;;;;;;;;;;19.10;62.10;;;;;;5013430;28;1301;-70
2022/06/03 05:45:22;;;;;;;;;;;19.10;62.30;;;;;;5014784;28;994;-68
2022/06/03 05:47:48;;;;;;;;;;;19.10;62.40;;;;;;5014520;28;1060;-70
2022/06/03 05:50:19;;;;;;;;;;;19.10;62.60;;;;;;5014356;28;863;-68
2022/06/03 05:53:03;;;;;;;;;;;19.10;62.70;;;;;;5014796;28;1257;-67
2022/06/03 05:55:31;;;;;;;;;;;19.10;62.80;;;;;;5014558;28;796;-70
2022/06/03 05:58:16;;;;;;;;;;;19.10;62.90;;;;;;5014420;28;943;-69
2022/06/03 06:00:48;;;;;;;;;;;19.10;63.00;;;;;;5014052;28;1898;-69
2022/06/03 06:03:23;;;;;;;;;;;19.10;63.10;;;;;;5014577;28;1133;-68
2022/06/03 06:05:57;;;;;;;;;;;19.10;63.20;;;;;;5013108;28;831;-68
2022/06/03 06:08:32;;;;;;;;;;;19.10;63.30;;;;;;5014298;28;970;-69
2022/06/03 06:11:16;;;;;;;;;;;19.10;63.40;;;;;;5012653;28;843;-69
2022/06/03 06:14:02;;;;;;;;;;;19.10;63.50;;;;;;4996486;28;1180;-74
2022/06/03 06:16:28;;;;;;;;;;;19.10;63.60;;;;;;5013667;28;1103;-71
2022/06/03 06:19:12;;;;;;;;;;;19.10;63.60;;;;;;5014136;28;1107;-71
2022/06/03 06:21:40;;;;;;;;;;;19.10;63.70;;;;;;5013583;28;1894;-71
2022/06/03 06:24:18;;;;;;;;;;;19.10;63.80;;;;;;5014050;28;974;-71
2022/06/03 06:27:02;;;;;;;;;;;19.10;63.80;;;;;;5014637;28;1163;-71
2022/06/03 06:29:27;;;;;;;;;;;19.10;63.90;;;;;;5013856;28;978;-71
2022/06/03 06:32:11;;;;;;;;;;;19.10;63.90;;;;;;5013482;28;1283;-71
2022/06/03 06:34:46;;;;;;;;;;;19.10;63.90;;;;;;5014263;28;867;-71
2022/06/03 06:37:24;;;;;;;;;;;19.10;64.00;;;;;;5012705;28;866;-71
2022/06/03 06:39:52;;;;;;;;;;;19.10;64.00;;;;;;5012376;28;1966;-72
2022/06/03 06:42:27;;;;;;;;;;;19.10;64.10;;;;;;5013670;28;1168;-72
2022/06/03 06:44:55;;;;;;;;;;;19.10;64.10;;;;;;5013847;28;990;-72
2022/06/03 06:47:46;;;;;;;;;;;19.10;64.10;;;;;;5012498;28;846;-71
2022/06/03 06:50:22;;;;;;;;;;;19.10;64.10;;;;;;5010961;28;1010;-71
2022/06/03 06:52:51;;;;;;;;;;;19.10;64.20;;;;;;5012227;28;1260;-71
2022/06/03 06:55:22;;;;;;;;;;;19.10;64.20;;;;;;5013889;28;862;-69
2022/06/03 06:58:01;;;;;;;;;;;19.10;64.20;;;;;;5013617;28;887;-71
2022/06/03 07:00:27;;;;;;;;;;;19.10;64.30;;;;;;5012330;28;1906;-70
2022/06/03 07:02:55;;;;;;;;;;;19.10;64.30;;;;;;5012877;28;1287;-70
2022/06/03 07:05:29;;;;;;;;;;;19.10;64.40;;;;;;5012635;28;835;-70
2022/06/03 07:08:09;;;;;;;;;;;19.10;64.40;;;;;;5013881;28;871;-70
2022/06/03 07:10:46;;;;;;;;;;;19.10;64.40;;;;;;5010646;28;1885;-70
2022/06/03 07:13:13;;;;;;;;;;;19.10;64.40;;;;;;5010103;28;1835;-70
2022/06/03 07:15:54;;;;;;;;;;;19.10;64.50;;;;;;5010981;28;1290;-70
2022/06/03 07:21:13;;;;;;;;;;;19.20;65.10;;;;;;5010907;28;2003;-70
2022/06/03 07:23:38;;;;;;;;;;;19.20;65.20;;;;;;5011911;28;1274;-71
2022/06/03 07:26:16;;;;;;;;;;;19.20;65.40;;;;;;5013145;28;1204;-71
2022/06/03 07:28:59;;;;;;;;;;;19.20;65.40;;;;;;5011457;28;1344;-70
2022/06/03 07:31:27;;;;;;;;;;;19.30;65.60;;;;;;5011888;28;941;-70
2022/06/03 07:33:55;;;;;;;;;;;19.30;65.60;;;;;;5013221;28;899;-71
2022/06/03 07:36:29;;;;;;;;;;;19.30;65.60;;;;;;5011819;28;868;-70
2022/06/03 07:38:55;;;;;;;;;;;19.30;65.60;;;;;;5013473;28;866;-70
2022/06/03 07:41:21;;;;;;;;;;;19.30;65.60;;;;;;5013227;28;1910;-70
2022/06/03 07:44:00;;;;;;;;;;;19.30;65.70;;;;;;5011757;28;1259;-70
2022/06/03 07:46:29;;;;;;;;;;;19.40;65.80;;;;;;5012452;28;1080;-70
2022/06/03 07:48:54;;;;;;;;;;;19.40;65.80;;;;;;5011817;28;804;-70
2022/06/03 07:51:31;;;;;;;;;;;19.40;65.90;;;;;;5011556;28;815;-70
2022/06/03 07:54:04;;;;;;;;;;;19.40;66.00;;;;;;5012025;28;918;-70
2022/06/03 07:56:30;;;;;;;;;;;19.40;66.10;;;;;;5011874;28;875;-72
2022/06/03 07:58:57;;;;;;;;;;;19.40;66.00;;;;;;5011878;28;816;-71
2022/06/03 08:01:23;;;;;;;;;;;19.40;66.10;;;;;;5009843;28;2295;-71
2022/06/03 08:03:48;;;;;;;;;;;19.40;66.00;;;;;;5014953;28;1276;-70
2022/06/03 08:06:14;;;;;;;;;;;19.40;66.10;;;;;;5015282;28;1552;-71
2022/06/03 08:11:26;;;;;;;;;;;19.40;66.10;;;;;;5015484;28;736;-72
2022/06/03 08:13:52;;;;;;;;;;;19.50;66.30;;;;;;5015440;28;959;-72
2022/06/03 08:16:20;;;;;;;;;;;19.50;66.30;;;;;;5015398;28;835;-71
2022/06/03 08:18:46;;;;;;;;;;;19.50;66.30;;;;;;5015353;28;788;-72
2022/06/03 08:21:13;;;;;;;;;;;19.50;66.40;;;;;;5014897;28;1968;-72
2022/06/03 08:23:38;;;;;;;;;;;19.50;66.40;;;;;;5015286;28;1294;-71
2022/06/03 08:26:13;;;;;;;;;;;19.50;66.70;;;;;;5014890;28;1457;-72
2022/06/03 08:28:38;;;;;;;;;;;19.50;66.80;;;;;;5015102;28;1157;-73
2022/06/03 08:31:04;;;;;;;;;;;19.50;66.80;;;;;;5014824;28;1017;-71
2022/06/03 08:33:30;;;;;;;;;;;19.60;66.80;;;;;;5016366;28;1163;-72
2022/06/03 08:35:56;;;;;;;;;;;19.60;66.80;;;;;;5014359;28;2229;-70
2022/06/03 08:38:26;;;;;;;;;;;19.60;66.70;;;;;;5012593;28;1363;-71
2022/06/03 08:40:58;;;;;;;;;;;19.60;66.60;;;;;;5006905;28;1959;-72
2022/06/03 08:43:29;;;;;;;;;;;19.60;66.50;;;;;;5015720;28;1254;-71
2022/06/03 08:46:00;;;;;;;;;;;19.60;66.60;;;;;;5016161;28;792;-72
2022/06/03 08:48:28;;;;;;;;;;;19.60;66.60;;;;;;5014755;28;774;-71
2022/06/03 08:50:56;;;;;;;;;;;19.60;66.50;;;;;;5014464;28;824;-71
2022/06/03 08:53:40;;;;;;;;;;;19.60;66.50;;;;;;5014508;28;1299;-71
2022/06/03 08:56:07;;;;;;;;;;;19.60;66.70;;;;;;5015803;28;804;-71
2022/06/03 08:58:42;;;;;;;;;;;19.60;66.70;;;;;;5014671;28;1116;-71
2022/06/03 09:01:10;;;;;;;;;;;19.60;66.80;;;;;;5014158;28;1902;-71
2022/06/03 09:03:50;;;;;;;;;;;19.60;66.90;;;;;;5015648;28;1169;-71
2022/06/03 09:06:28;;;;;;;;;;;19.60;67.00;;;;;;5014296;28;780;-71
2022/06/03 09:08:56;;;;;;;;;;;19.60;67.00;;;;;;5014353;28;800;-71
2022/06/03 09:11:26;;;;;;;;;;;19.60;67.40;;;;;;5014025;28;1130;-71
2022/06/03 09:14:08;;;;;;;;;;;19.60;67.10;;;;;;5013837;28;806;-71
2022/06/03 09:16:33;;;;;;;;;;;19.60;67.20;;;;;;4997837;28;1420;-73
2022/06/03 09:19:01;;;;;;;;;;;19.60;67.20;;;;;;5014224;28;955;-72
2022/06/03 09:21:31;;;;;;;;;;;19.60;67.20;;;;;;5013899;28;1903;-71
2022/06/03 09:24:02;;;;;;;;;;;19.60;67.40;;;;;;5014074;28;875;-71
2022/06/03 09:26:32;;;;;;;;;;;19.60;68.10;;;;;;5013977;28;1246;-73
2022/06/03 09:28:58;;;;;;;;;;;19.60;67.70;;;;;;5014143;28;942;-72
2022/06/03 09:31:24;;;;;;;;;;;19.70;67.60;;;;;;5013968;28;804;-71
2022/06/03 09:33:49;;;;;;;;;;;19.70;67.60;;;;;;5014076;28;1244;-71
2022/06/03 09:36:18;;;;;;;;;;;19.70;67.80;;;;;;5014086;28;804;-71
2022/06/03 09:39:03;;;;;;;;;;;19.60;67.60;;;;;;5014117;28;796;-71
2022/06/03 09:41:34;;;;;;;;;;;19.60;67.60;;;;;;5003999;28;1957;-71
2022/06/03 09:44:02;;;;;;;;;;;19.60;68.30;;;;;;5061235;22;2881;-70
2022/06/03 09:46:29;;;;;;;;;;;19.60;67.60;;;;;;5053043;28;1623;-70
2022/06/03 09:48:54;;;;;;;;;;;19.60;67.80;;;;;;5045802;28;1658;-70
2022/06/03 09:51:25;;;;;;;;;;;19.60;68.10;;;;;;5052996;28;1443;-70
2022/06/03 09:53:50;;;;;;;;;;;19.60;68.10;;;;;;5045213;28;1482;-71
2022/06/03 09:56:18;;;;;;;;;;;19.60;68.20;;;;;;5053054;28;1572;-71
2022/06/03 09:58:43;;;;;;;;;;;19.60;68.20;;;;;;5044898;28;1605;-71
2022/06/03 10:01:09;;;;;;;;;;;19.60;68.20;;;;;;5052834;28;1913;-71
2022/06/03 10:03:34;;;;;;;;;;;19.60;68.40;;;;;;5053128;28;1213;-70
2022/06/03 10:06:00;;;;;;;;;;;19.60;68.40;;;;;;5054273;28;850;-70
2022/06/03 10:08:28;;;;;;;;;;;19.60;68.40;;;;;;5054045;28;870;-70
2022/06/03 10:13:39;;;;;;;;;;;19.60;68.30;;;;;;5053137;28;1761;-70
2022/06/03 10:16:07;;;;;;;;;;;19.60;68.30;;;;;;5054212;28;898;-70
2022/06/03 10:18:33;;;;;;;;;;;19.60;68.70;;;;;;5046055;28;1422;-70
2022/06/03 10:21:18;;;;;;;;;;;19.60;68.80;;;;;;5033770;28;1903;-70
2022/06/03 10:23:53;;;;;;;;;;;19.60;68.80;;;;;;5026570;28;1227;-71
2022/06/03 10:26:19;;;;;;;;;;;19.60;68.80;;;;;;5040762;28;1475;-70
2022/06/03 10:28:47;;;;;;;;;;;19.60;68.80;;;;;;5052642;28;946;-70
2022/06/03 10:31:14;;;;;;;;;;;19.70;68.80;;;;;;5052189;28;1254;-70
2022/06/03 10:33:39;;;;;;;;;;;19.70;68.80;;;;;;5044331;28;1658;-70
2022/06/03 10:36:05;;;;;;;;;;;19.70;68.80;;;;;;5053815;28;885;-70
2022/06/03 10:38:31;;;;;;;;;;;19.70;68.80;;;;;;5052481;28;863;-70
2022/06/03 10:41:00;;;;;;;;;;;19.70;68.80;;;;;;5052178;28;1910;-70
2022/06/03 10:43:27;;;;;;;;;;;19.70;68.80;;;;;;5052020;28;1297;-70
2022/06/03 10:45:52;;;;;;;;;;;19.70;68.80;;;;;;5052255;28;957;-70
2022/06/03 10:48:22;;;;;;;;;;;19.70;68.90;;;;;;5053505;28;878;-69
2022/06/03 10:50:47;;;;;;;;;;;19.70;69.00;;;;;;5053305;28;938;-70
2022/06/03 11:01:29;;;;;;;;;;;19.70;69.30;;;;;;5052018;28;1917;-69
2022/06/03 11:03:56;;;;;;;;;;;19.70;69.20;;;;;;5052007;28;1294;-70
2022/06/03 11:06:22;;;;;;;;;;;19.70;69.20;;;;;;5052020;28;831;-70
2022/06/03 11:08:49;;;;;;;;;;;19.70;69.10;;;;;;5053089;28;986;-71
2022/06/03 11:11:16;;;;;;;;;;;19.70;69.20;;;;;;5052906;28;914;-70
2022/06/03 11:13:41;;;;;;;;;;;19.70;69.20;;;;;;5051795;28;1583;-69
2022/06/03 11:16:14;;;;;;;;;;;19.70;69.10;;;;;;5050102;28;2089;-69
2022/06/03 11:18:41;;;;;;;;;;;19.70;69.10;;;;;;5050614;28;1339;-69
2022/06/03 11:21:23;;;;;;;;;;;19.70;69.20;;;;;;5043271;28;1955;-69
2022/06/03 11:23:49;;;;;;;;;;;19.70;69.30;;;;;;5051823;28;1247;-69
2022/06/03 11:26:14;;;;;;;;;;;19.70;69.30;;;;;;5042599;28;1444;-70
2022/06/03 11:28:41;;;;;;;;;;;19.80;69.50;;;;;;5031845;28;879;-70
2022/06/03 11:31:06;;;;;;;;;;;19.70;69.70;;;;;;5028150;28;1471;-69
2022/06/03 11:33:36;;;;;;;;;;;19.80;69.70;;;;;;5049140;28;1787;-68
2022/06/03 11:36:06;;;;;;;;;;;19.80;69.50;;;;;;5052509;28;878;-68
2022/06/03 11:38:37;;;;;;;;;;;19.80;69.40;;;;;;5056384;28;873;-67
2022/06/03 11:41:03;;;;;;;;;;;19.80;69.30;;;;;;5055891;28;1902;-69
2022/06/03 11:43:31;;;;;;;;;;;19.80;69.20;;;;;;5054907;28;1297;-71
2022/06/03 11:46:07;;;;;;;;;;;19.80;69.10;;;;;;5056148;28;912;-69
2022/06/03 11:48:37;;;;;;;;;;;19.80;69.10;;;;;;5055789;28;1017;-70
2022/06/03 11:51:02;;;;;;;;;;;19.90;69.00;;;;;;5055905;28;830;-71
2022/06/03 11:53:29;;;;;;;;;;;19.90;68.90;;;;;;5056700;28;1203;-70
2022/06/03 11:55:54;;;;;;;;;;;19.90;68.90;;;;;;5056844;28;814;-70
2022/06/03 11:58:42;;;;;;;;;;;19.90;68.90;;;;;;5056705;28;957;-70
2022/06/03 12:01:34;;;;;;;;;;;19.90;68.90;;;;;;5055132;28;1887;-71
2022/06/03 12:04:02;;;;;;;;;;;19.90;69.10;;;;;;5050395;28;1920;-73
2022/06/03 12:06:32;;;;;;;;;;;19.90;69.10;;;;;;5034978;28;1375;-70
2022/06/03 12:09:20;;;;;;;;;;;19.90;68.20;;;;;;5035379;28;816;-70
2022/06/03 12:14:58;;;;;;;;;;;19.90;66.10;;;;;;5044644;28;1963;-70
2022/06/03 12:17:27;;;;;;;;;;;19.90;63.80;;;;;;5056639;28;1186;-69
2022/06/03 12:19:54;;;;;;;;;;;19.90;62.70;;;;;;5049525;28;1893;-70
2022/06/03 12:22:28;;;;;;;;;;;19.90;62.90;;;;;;5035575;28;1210;-70
2022/06/03 12:24:54;;;;;;;;;;;19.90;62.10;;;;;;5036976;28;2048;-70
2022/06/03 12:27:27;;;;;;;;;;;19.90;62.00;;;;;;5047821;28;1138;-70
2022/06/03 12:30:05;;;;;;;;;;;19.90;63.00;;;;;;5055184;28;1095;-72
2022/06/03 12:32:30;;;;;;;;;;;19.90;61.50;;;;;;5055445;28;1209;-70
2022/06/03 12:35:14;;;;;;;;;;;19.90;62.30;;;;;;5055225;28;784;-70
2022/06/03 12:37:40;;;;;;;;;;;19.80;62.50;;;;;;5043917;28;979;-70
2022/06/03 12:40:22;;;;;;;;;;;19.80;62.40;;;;;;5040792;28;1947;-68
2022/06/03 12:42:47;;;;;;;;;;;19.80;62.40;;;;;;5017229;28;1354;-69
2022/06/03 12:45:22;;;;;;;;;;;19.80;61.90;;;;;;5033811;28;783;-68
2022/06/03 12:47:49;;;;;;;;;;;19.90;61.60;;;;;;5040182;28;2161;-70
2022/06/03 12:50:23;;;;;;;;;;;19.90;59.80;;;;;;5025575;28;1980;-68
2022/06/03 12:52:49;;;;;;;;;;;19.90;59.80;;;;;;5038234;28;1824;-68
2022/06/03 12:55:14;;;;;;;;;;;19.90;59.70;;;;;;5044227;28;1738;-68
2022/06/03 12:57:43;;;;;;;;;;;19.90;60.50;;;;;;5035558;28;1192;-68
2022/06/03 13:00:08;;;;;;;;;;;19.90;59.90;;;;;;5036258;28;1918;-70
2022/06/03 13:02:37;;;;;;;;;;;19.90;60.40;;;;;;5049638;28;2185;-72
2022/06/03 13:05:09;;;;;;;;;;;19.90;60.20;;;;;;5044622;28;2001;-69
2022/06/03 13:07:54;;;;;;;;;;;19.90;59.30;;;;;;5051436;28;1854;-69
2022/06/03 13:10:22;;;;;;;;;;;19.90;58.90;;;;;;5041696;28;1219;-69
2022/06/03 13:12:48;;;;;;;;;;;19.90;58.50;;;;;;5044250;28;1304;-70
2022/06/03 13:15:17;;;;;;;;;;;19.90;58.90;;;;;;5051744;28;950;-69
2022/06/03 13:18:09;;;;;;;;;;;19.90;59.90;;;;;;5053600;28;843;-71
2022/06/03 13:20:36;;;;;;;;;;;19.90;59.50;;;;;;5042070;28;1902;-70
2022/06/03 13:23:02;;;;;;;;;;;19.80;58.90;;;;;;5048452;28;1238;-69
2022/06/03 13:25:31;;;;;;;;;;;19.90;58.30;;;;;;5048227;28;1297;-69
2022/06/03 13:28:12;;;;;;;;;;;19.90;59.00;;;;;;5053508;28;870;-68
2022/06/03 13:30:38;;;;;;;;;;;19.90;59.40;;;;;;5051940;28;1004;-68
2022/06/03 13:33:19;;;;;;;;;;;19.90;57.70;;;;;;5049326;28;1229;-69
2022/06/03 13:35:57;;;;;;;;;;;19.90;58.10;;;;;;5052369;28;803;-69
2022/06/03 13:38:27;;;;;;;;;;;19.90;57.30;;;;;;5052635;28;874;-70
2022/06/03 13:44:03;;;;;;;;;;;19.90;58.00;;;;;;5054094;28;1327;-74
2022/06/03 13:46:29;;;;;;;;;;;19.90;58.90;;;;;;5052351;28;953;-67
2022/06/03 13:48:56;;;;;;;;;;;19.90;58.90;;;;;;5051618;28;946;-64
2022/06/03 13:51:21;;;;;;;;;;;19.90;57.80;;;;;;5051604;28;1329;-65
2022/06/03 13:53:51;;;;;;;;;;;19.90;58.10;;;;;;5053194;28;1302;-65
2022/06/03 13:56:18;;;;;;;;;;;19.90;57.80;;;;;;5052264;28;898;-71
2022/06/03 13:58:44;;;;;;;;;;;19.90;58.50;;;;;;5051549;28;910;-67
2022/06/03 14:01:23;;;;;;;;;;;19.90;58.30;;;;;;5030871;28;2099;-68
2022/06/03 14:03:52;;;;;;;;;;;19.90;57.70;;;;;;5029756;28;1214;-71
2022/06/03 14:06:28;;;;;;;;;;;19.90;57.90;;;;;;5032045;28;875;-71
2022/06/03 14:09:03;;;;;;;;;;;19.90;58.40;;;;;;5031962;28;886;-71
2022/06/03 14:11:29;;;;;;;;;;;19.90;58.70;;;;;;5033239;28;962;-68
2022/06/03 14:13:58;;;;;;;;;;;19.80;58.80;;;;;;5031814;28;1208;-66
2022/06/03 14:16:29;;;;;;;;;;;19.90;59.20;;;;;;5033218;28;842;-72
2022/06/03 14:19:20;;;;;;;;;;;19.90;59.60;;;;;;5042538;28;1119;-69
2022/06/03 14:21:46;;;;;;;;;;;19.80;59.60;;;;;;5033645;28;1964;-67
2022/06/03 14:24:30;;;;;;;;;;;19.80;58.40;;;;;;5051919;28;1303;-68
2022/06/03 14:27:02;;;;;;;;;;;19.80;58.40;;;;;;5048953;28;2201;-71
2022/06/03 14:29:37;;;;;;;;;;;19.80;58.60;;;;;;5043984;28;1225;-70
2022/06/03 14:32:04;;;;;;;;;;;19.80;58.50;;;;;;5050533;28;2249;-70
2022/06/03 14:34:31;;;;;;;;;;;19.80;58.50;;;;;;5041002;28;1365;-70
2022/06/03 14:36:58;;;;;;;;;;;19.80;58.80;;;;;;5052719;28;635;-70
2022/06/03 14:39:37;;;;;;;;;;;19.80;59.40;;;;;;5052153;28;823;-70
2022/06/03 14:42:07;;;;;;;;;;;19.80;59.70;;;;;;5045343;28;1096;-70
2022/06/03 14:44:33;;;;;;;;;;;19.80;59.80;;;;;;5053234;28;1369;-69
2022/06/03 14:47:14;;;;;;;;;;;19.80;59.90;;;;;;5052397;28;879;-70
2022/06/03 14:49:45;;;;;;;;;;;19.80;59.50;;;;;;5052234;28;896;-71
2022/06/03 14:52:12;;;;;;;;;;;19.80;59.60;;;;;;5051986;28;1045;-70
2022/06/03 14:54:43;;;;;;;;;;;19.80;59.10;;;;;;5051953;28;1357;-70
2022/06/03 14:57:09;;;;;;;;;;;19.80;58.20;;;;;;5052436;28;748;-70
2022/06/03 14:59:34;;;;;;;;;;;19.80;58.50;;;;;;5051761;28;1969;-71
2022/06/03 15:02:00;;;;;;;;;;;19.80;59.00;;;;;;5052864;28;867;-70
2022/06/03 15:04:58;;;;;;;;;;;19.80;59.20;;;;;;5053003;28;1208;-70
2022/06/03 15:07:25;;;;;;;;;;;19.80;59.10;;;;;;5030195;28;1386;-70
2022/06/03 15:09:51;;;;;;;;;;;19.80;58.40;;;;;;5052862;28;974;-70
2022/06/03 15:12:27;;;;;;;;;;;19.80;58.70;;;;;;5051364;28;1214;-69
2022/06/03 15:14:53;;;;;;;;;;;19.70;59.00;;;;;;5051850;28;914;-71
2022/06/03 15:17:25;;;;;;;;;;;19.80;59.20;;;;;;5053033;28;874;-70
2022/06/03 15:19:52;;;;;;;;;;;19.70;58.80;;;;;;5035356;28;1910;-70
2022/06/03 15:22:18;;;;;;;;;;;19.80;57.90;;;;;;5031803;28;1286;-70
2022/06/03 15:24:46;;;;;;;;;;;19.80;56.60;;;;;;5032995;28;803;-70
2022/06/03 15:27:12;;;;;;;;;;;19.80;55.50;;;;;;5046438;28;1171;-69
2022/06/03 15:29:37;;;;;;;;;;;19.80;55.60;;;;;;5051577;28;835;-70
2022/06/03 15:32:04;;;;;;;;;;;19.80;57.40;;;;;;5051526;28;1041;-70
2022/06/03 15:34:33;;;;;;;;;;;19.80;58.00;;;;;;5052983;28;1180;-69